Time;durP1;ratioP1;P1;durP2;ratioP2;P2;SDS_P1;SDS_P2;PMS_P1;PMS_P2;Temp;Humidity;BMP_temperature;BMP_pressure;BME280_temperature;BME280_humidity;BME280_pressure;Samples;Min_cycle;Max_cycle;Signal;HPM_P1;HPM_P2
2022/10/30 00:00:04;;;;;;;2.45;2.15;;;17.00;65.30;;;;;;5043326;28;20201;-70
2022/10/30 00:02:30;;;;;;;2.92;2.28;;;17.00;65.30;;;;;;5043319;28;20021;-70
2022/10/30 00:04:56;;;;;;;2.65;2.08;;;17.00;65.30;;;;;;5043269;28;20085;-71
2022/10/30 00:07:22;;;;;;;3.28;2.05;;;17.00;65.30;;;;;;5043291;28;20021;-71
2022/10/30 00:09:47;;;;;;;2.83;2.53;;;17.00;65.30;;;;;;5043252;28;20022;-70
2022/10/30 00:12:13;;;;;;;2.60;2.40;;;17.00;65.30;;;;;;5043156;28;20064;-71
2022/10/30 00:14:39;;;;;;;2.92;2.40;;;17.00;65.30;;;;;;5043187;28;20025;-71
2022/10/30 00:17:05;;;;;;;2.95;2.33;;;17.00;65.30;;;;;;5043191;28;20024;-69
2022/10/30 00:19:31;;;;;;;2.50;2.30;;;17.00;65.40;;;;;;5043155;28;20028;-69
2022/10/30 00:21:56;;;;;;;3.28;2.50;;;17.00;65.40;;;;;;5060172;28;20247;-69
2022/10/30 00:24:22;;;;;;;2.33;2.10;;;17.00;65.40;;;;;;5083089;28;20212;-69
2022/10/30 00:26:48;;;;;;;2.53;2.00;;;17.00;65.30;;;;;;5083121;28;20194;-70
2022/10/30 00:29:14;;;;;;;3.15;2.60;;;17.00;65.30;;;;;;5083025;28;20054;-70
2022/10/30 00:31:40;;;;;;;2.45;2.20;;;17.00;65.30;;;;;;5082935;28;20079;-70
2022/10/30 00:34:07;;;;;;;2.42;2.15;;;17.00;65.90;;;;;;5083016;28;20051;-69
2022/10/30 00:36:32;;;;;;;2.92;2.50;;;17.00;66.00;;;;;;5082992;28;20330;-69
2022/10/30 00:38:58;;;;;;;2.47;1.98;;;17.00;65.30;;;;;;5086047;28;20045;-70
2022/10/30 00:41:24;;;;;;;3.28;2.15;;;17.00;65.30;;;;;;5086675;28;20024;-69
2022/10/30 00:43:51;;;;;;;2.40;2.20;;;17.00;65.40;;;;;;5086584;28;20021;-69
2022/10/30 00:46:46;;;;;;;2.20;1.95;;;17.00;65.30;;;;;;5086570;28;20023;-70
2022/10/30 00:49:15;;;;;;;2.60;1.90;;;17.00;65.30;;;;;;5073440;28;20035;-70
2022/10/30 00:51:48;;;;;;;2.22;2.03;;;17.00;65.30;;;;;;5086395;28;20021;-69
2022/10/30 00:54:16;;;;;;;4.63;2.40;;;17.00;65.30;;;;;;5086487;28;20020;-69
2022/10/30 00:56:43;;;;;;;2.50;2.28;;;17.00;65.30;;;;;;5086436;28;20204;-69
2022/10/30 00:59:13;;;;;;;2.70;2.38;;;17.00;65.30;;;;;;5086341;28;20216;-69
2022/10/30 01:01:42;;;;;;;2.75;2.40;;;17.00;65.30;;;;;;5086331;28;20054;-69
2022/10/30 01:04:08;;;;;;;3.45;2.85;;;17.00;65.30;;;;;;5086323;28;20020;-69
2022/10/30 01:06:38;;;;;;;2.70;2.38;;;17.00;65.30;;;;;;5086234;28;20025;-70
2022/10/30 01:09:04;;;;;;;2.55;2.30;;;17.00;65.30;;;;;;5086155;28;20020;-69
2022/10/30 01:11:30;;;;;;;2.53;2.03;;;17.00;65.30;;;;;;5086087;28;20017;-69
2022/10/30 01:14:00;;;;;;;2.53;2.10;;;17.00;65.30;;;;;;5084940;28;20017;-69
2022/10/30 01:16:34;;;;;;;3.13;2.25;;;17.00;65.30;;;;;;5086067;28;20012;-69
2022/10/30 01:19:15;;;;;;;2.90;2.40;;;17.00;65.30;;;;;;5086033;28;20017;-69
2022/10/30 01:21:52;;;;;;;2.40;2.03;;;17.00;65.30;;;;;;5085785;28;20052;-69
2022/10/30 01:24:18;;;;;;;2.72;2.30;;;17.00;65.30;;;;;;5085981;28;20027;-69
2022/10/30 01:26:59;;;;;;;2.67;2.30;;;17.00;65.30;;;;;;5085830;28;20021;-69
2022/10/30 01:29:24;;;;;;;2.83;2.20;;;17.00;65.40;;;;;;5085846;28;20016;-69
2022/10/30 01:32:17;;;;;;;3.33;2.20;;;17.00;65.40;;;;;;5085692;28;20272;-69
2022/10/30 01:35:05;;;;;;;2.85;2.47;;;16.90;65.30;;;;;;5085746;28;20085;-69
2022/10/30 01:37:44;;;;;;;3.35;2.60;;;17.00;65.30;;;;;;5085718;28;20028;-69
2022/10/30 01:40:16;;;;;;;2.38;2.10;;;17.00;65.40;;;;;;5085672;28;20032;-69
2022/10/30 01:42:52;;;;;;;2.40;2.20;;;16.90;65.30;;;;;;5084457;28;20247;-69
2022/10/30 01:45:24;;;;;;;2.80;2.28;;;17.00;65.30;;;;;;5085505;28;20020;-70
2022/10/30 01:47:53;;;;;;;2.63;2.42;;;17.00;65.30;;;;;;5085483;28;20335;-69
2022/10/30 01:50:48;;;;;;;2.90;2.50;;;16.90;65.30;;;;;;5083328;28;20031;-69
2022/10/30 01:53:35;;;;;;;2.78;2.42;;;16.90;65.30;;;;;;5082301;28;20041;-69
2022/10/30 01:56:33;;;;;;;2.42;2.22;;;17.00;65.30;;;;;;5085318;28;20054;-70
2022/10/30 01:59:22;;;;;;;3.27;2.00;;;17.00;65.30;;;;;;5085301;28;20204;-69
2022/10/30 02:01:48;;;;;;;3.00;2.50;;;16.90;65.30;;;;;;5085207;28;20300;-70
2022/10/30 02:04:15;;;;;;;2.90;2.35;;;16.90;65.30;;;;;;5085159;28;20016;-69
2022/10/30 02:06:41;;;;;;;2.70;2.47;;;16.90;65.30;;;;;;5085073;28;20358;-70
2022/10/30 02:09:06;;;;;;;2.33;1.98;;;17.00;65.30;;;;;;5085009;28;20328;-69
2022/10/30 02:11:33;;;;;;;2.65;2.15;;;16.90;65.30;;;;;;5084921;28;20047;-69
2022/10/30 02:14:04;;;;;;;2.58;2.10;;;16.90;65.30;;;;;;5084898;28;20013;-69
2022/10/30 02:16:31;;;;;;;2.72;2.30;;;16.90;65.30;;;;;;5084907;28;20255;-69
2022/10/30 02:18:57;;;;;;;1.90;1.80;;;17.00;65.40;;;;;;5083684;28;20016;-69
2022/10/30 02:21:22;;;;;;;3.08;2.25;;;16.90;65.30;;;;;;5084622;28;20293;-70
2022/10/30 02:23:48;;;;;;;3.22;2.17;;;16.90;65.30;;;;;;5083554;28;20339;-69
2022/10/30 02:26:14;;;;;;;2.45;2.05;;;17.00;65.40;;;;;;5084672;28;20032;-69
2022/10/30 02:28:40;;;;;;;2.88;2.10;;;17.00;65.30;;;;;;5084606;28;20076;-70
2022/10/30 02:31:06;;;;;;;2.50;2.20;;;16.90;65.30;;;;;;5084527;28;20012;-69
2022/10/30 02:33:32;;;;;;;2.42;2.13;;;16.90;65.30;;;;;;5083371;28;20216;-69
2022/10/30 02:35:57;;;;;;;2.38;2.10;;;16.90;65.30;;;;;;5084488;28;20017;-69
2022/10/30 02:38:23;;;;;;;2.78;2.20;;;16.90;65.30;;;;;;5084439;28;20031;-69
2022/10/30 02:40:49;;;;;;;2.50;2.30;;;16.90;65.30;;;;;;5084416;28;20020;-70
2022/10/30 02:43:15;;;;;;;3.53;2.47;;;16.90;65.30;;;;;;5084359;28;20020;-69
2022/10/30 02:45:41;;;;;;;2.83;2.28;;;16.90;65.30;;;;;;5084300;28;20212;-69
2022/10/30 02:48:06;;;;;;;3.08;2.40;;;16.90;65.40;;;;;;5084280;28;20028;-69
2022/10/30 02:50:32;;;;;;;2.83;2.55;;;16.90;65.30;;;;;;5084224;28;20040;-70
2022/10/30 02:52:58;;;;;;;3.03;2.40;;;16.90;65.30;;;;;;5084095;28;20024;-71
2022/10/30 02:55:24;;;;;;;2.50;2.30;;;16.90;65.30;;;;;;5084123;28;20012;-70
2022/10/30 02:57:50;;;;;;;2.53;2.17;;;16.90;65.30;;;;;;5084096;28;20232;-70
2022/10/30 03:00:16;;;;;;;2.78;2.53;;;16.90;65.30;;;;;;5083943;28;20319;-69
2022/10/30 03:02:42;;;;;;;2.65;2.40;;;16.90;65.30;;;;;;5083978;28;20074;-69
2022/10/30 03:05:08;;;;;;;2.67;2.10;;;16.90;65.30;;;;;;5083119;28;20026;-69
2022/10/30 03:07:33;;;;;;;2.33;2.13;;;16.90;65.30;;;;;;5083915;28;20035;-69
2022/10/30 03:09:59;;;;;;;2.70;2.47;;;16.90;65.30;;;;;;5083902;28;20023;-69
2022/10/30 03:12:25;;;;;;;3.33;2.70;;;16.90;65.30;;;;;;5083770;28;20020;-69
2022/10/30 03:14:51;;;;;;;2.63;2.05;;;16.90;65.30;;;;;;5083825;28;20012;-69
2022/10/30 03:17:16;;;;;;;2.25;2.05;;;16.90;65.30;;;;;;5083795;28;20020;-70
2022/10/30 03:19:42;;;;;;;2.47;2.08;;;16.90;65.30;;;;;;5083742;28;20080;-69
2022/10/30 03:22:08;;;;;;;2.80;2.08;;;16.90;65.30;;;;;;5083531;28;20052;-69
2022/10/30 03:24:34;;;;;;;2.45;2.25;;;16.90;65.30;;;;;;5083706;28;20024;-70
2022/10/30 03:26:59;;;;;;;3.20;2.63;;;16.90;65.30;;;;;;5083682;28;20021;-69
2022/10/30 03:29:25;;;;;;;2.42;2.13;;;16.90;65.90;;;;;;5083648;28;20065;-69
2022/10/30 03:31:51;;;;;;;1.95;1.70;;;16.90;65.30;;;;;;5083565;28;20021;-70
2022/10/30 03:34:16;;;;;;;2.55;2.05;;;16.90;65.30;;;;;;5083624;28;20058;-69
2022/10/30 03:36:42;;;;;;;2.55;2.20;;;16.90;65.30;;;;;;5083564;28;20020;-69
2022/10/30 03:39:08;;;;;;;3.22;2.50;;;16.90;65.30;;;;;;5083602;28;20236;-70
2022/10/30 03:41:34;;;;;;;2.35;2.15;;;16.90;65.30;;;;;;5083495;28;20243;-69
2022/10/30 03:44:00;;;;;;;2.72;2.15;;;16.90;65.30;;;;;;5083478;28;20020;-69
2022/10/30 03:46:25;;;;;;;2.28;1.95;;;16.90;65.30;;;;;;5083435;28;20024;-70
2022/10/30 03:48:51;;;;;;;2.70;2.40;;;16.90;65.30;;;;;;5083455;28;20031;-70
2022/10/30 03:51:17;;;;;;;2.35;2.15;;;16.90;65.30;;;;;;5083361;28;20025;-70
2022/10/30 03:53:42;;;;;;;2.95;2.55;;;16.90;65.30;;;;;;5083397;28;20047;-69
2022/10/30 03:56:09;;;;;;;2.60;2.22;;;16.90;65.30;;;;;;5082208;28;20248;-69
2022/10/30 03:58:34;;;;;;;2.58;2.17;;;16.90;65.30;;;;;;5083383;28;20020;-69
2022/10/30 04:01:02;;;;;;;1.75;1.55;;;16.90;65.30;;;;;;5083342;28;20255;-69
2022/10/30 04:03:28;;;;;;;2.00;1.80;;;16.90;65.30;;;;;;5083341;28;20036;-69
2022/10/30 04:05:54;;;;;;;2.95;2.25;;;16.90;65.30;;;;;;5083292;28;20245;-69
2022/10/30 04:08:20;;;;;;;2.40;2.20;;;16.90;65.40;;;;;;5083284;28;20048;-69
2022/10/30 04:10:46;;;;;;;2.85;2.50;;;16.90;65.40;;;;;;5083251;28;20025;-69
2022/10/30 04:13:14;;;;;;;2.50;2.20;;;16.90;65.30;;;;;;5085148;28;20020;-70
2022/10/30 04:15:40;;;;;;;3.58;3.10;;;16.90;65.30;;;;;;5087262;28;20046;-69
2022/10/30 04:18:09;;;;;;;2.13;1.70;;;16.90;65.30;;;;;;5087179;28;20299;-70
2022/10/30 04:20:34;;;;;;;2.80;2.40;;;16.90;65.30;;;;;;5087145;28;20020;-69
2022/10/30 04:23:04;;;;;;;2.28;2.08;;;16.90;65.30;;;;;;5087235;28;20217;-69
2022/10/30 04:25:31;;;;;;;2.60;2.40;;;16.90;65.40;;;;;;5087048;28;20086;-70
2022/10/30 04:27:57;;;;;;;2.38;2.17;;;16.80;65.30;;;;;;5087009;28;20312;-69
2022/10/30 04:30:25;;;;;;;2.72;2.33;;;16.80;65.30;;;;;;5086941;28;20088;-70
2022/10/30 04:32:55;;;;;;;2.33;2.13;;;16.90;65.30;;;;;;5086840;28;20024;-69
2022/10/30 04:35:23;;;;;;;2.63;2.28;;;16.90;65.50;;;;;;5086855;28;20024;-69
2022/10/30 04:37:58;;;;;;;2.70;2.50;;;16.90;65.30;;;;;;5086825;28;20036;-69
2022/10/30 04:40:27;;;;;;;2.75;2.30;;;16.90;65.30;;;;;;5086768;28;20017;-70
2022/10/30 04:42:53;;;;;;;2.25;1.90;;;16.90;65.30;;;;;;5086661;28;20020;-70
2022/10/30 04:45:19;;;;;;;2.28;2.08;;;16.90;65.30;;;;;;5086631;28;20047;-71
2022/10/30 04:47:45;;;;;;;2.67;2.28;;;16.90;65.30;;;;;;5086603;28;20070;-70
2022/10/30 04:50:12;;;;;;;2.47;1.98;;;16.90;65.40;;;;;;5086573;28;20016;-70
2022/10/30 04:52:39;;;;;;;2.67;2.30;;;16.90;65.30;;;;;;5086410;28;20050;-70
2022/10/30 04:55:06;;;;;;;2.28;2.03;;;16.90;65.30;;;;;;5086486;28;20017;-70
2022/10/30 04:57:32;;;;;;;2.60;2.40;;;16.90;65.30;;;;;;5086395;28;20024;-70
2022/10/30 04:59:58;;;;;;;2.60;2.38;;;16.90;65.30;;;;;;5086380;28;20076;-69
2022/10/30 05:02:24;;;;;;;2.60;2.38;;;16.90;65.30;;;;;;5086296;28;20020;-69
2022/10/30 05:04:50;;;;;;;3.10;2.00;;;16.90;65.30;;;;;;5086349;28;20016;-70
2022/10/30 05:07:16;;;;;;;3.17;2.72;;;16.90;65.30;;;;;;5086243;28;20370;-69
2022/10/30 05:09:42;;;;;;;2.47;2.28;;;16.90;65.30;;;;;;5086217;28;20020;-69
2022/10/30 05:12:09;;;;;;;2.45;2.22;;;16.90;65.30;;;;;;5086099;28;20017;-70
2022/10/30 05:14:35;;;;;;;2.65;1.98;;;16.80;65.30;;;;;;5086102;28;20012;-69
2022/10/30 05:17:01;;;;;;;3.30;2.45;;;16.90;65.30;;;;;;5086091;28;20312;-69
2022/10/30 05:19:27;;;;;;;2.65;2.42;;;16.90;65.30;;;;;;5086056;28;20017;-69
2022/10/30 05:21:53;;;;;;;3.00;2.22;;;16.90;65.40;;;;;;5085824;28;20343;-69
2022/10/30 05:24:19;;;;;;;3.20;2.10;;;16.80;65.30;;;;;;5084606;28;20020;-69
2022/10/30 05:26:45;;;;;;;2.78;2.35;;;16.90;65.30;;;;;;5084759;28;20032;-70
2022/10/30 05:29:11;;;;;;;2.50;2.30;;;16.80;65.30;;;;;;5085865;28;20020;-70
2022/10/30 05:31:37;;;;;;;2.50;2.17;;;16.80;65.30;;;;;;5085722;28;20031;-69
2022/10/30 05:34:03;;;;;;;2.38;2.13;;;16.90;65.30;;;;;;5085769;28;20020;-69
2022/10/30 05:36:29;;;;;;;2.33;2.13;;;16.90;65.40;;;;;;5085672;28;20023;-70
2022/10/30 05:38:55;;;;;;;2.67;2.38;;;16.80;65.30;;;;;;5085706;28;20020;-69
2022/10/30 05:41:20;;;;;;;2.47;2.22;;;16.90;65.30;;;;;;5085625;28;20032;-69
2022/10/30 05:43:46;;;;;;;2.50;2.30;;;16.90;65.30;;;;;;5085535;28;20016;-69
2022/10/30 05:46:12;;;;;;;2.67;2.38;;;16.90;65.40;;;;;;5085489;28;20020;-69
2022/10/30 05:48:38;;;;;;;3.28;2.72;;;16.80;65.30;;;;;;5085520;28;20340;-69
2022/10/30 05:51:05;;;;;;;2.92;2.55;;;16.80;65.30;;;;;;5085364;28;20291;-69
2022/10/30 05:53:31;;;;;;;2.15;1.90;;;16.80;65.30;;;;;;5085428;28;20021;-69
2022/10/30 05:55:58;;;;;;;2.58;2.30;;;16.80;65.30;;;;;;5085363;28;20013;-69
2022/10/30 05:58:24;;;;;;;3.17;2.55;;;16.90;65.40;;;;;;5085283;28;20250;-70
2022/10/30 06:00:50;;;;;;;2.20;1.92;;;16.80;65.30;;;;;;5085242;28;20027;-69
2022/10/30 06:03:16;;;;;;;2.35;2.15;;;16.80;65.30;;;;;;5085160;28;20103;-69
2022/10/30 06:05:44;;;;;;;2.45;2.25;;;16.90;65.40;;;;;;5085146;28;20024;-69
2022/10/30 06:08:10;;;;;;;;;;;16.80;65.30;;;;;;5085529;28;20308;-69
2022/10/30 06:10:36;;;;;;;3.50;2.67;;;16.90;65.30;;;;;;5085049;28;19931;-69
2022/10/30 06:13:04;;;;;;;2.53;2.28;;;16.80;65.30;;;;;;5084893;28;20327;-69
2022/10/30 06:15:31;;;;;;;3.22;2.45;;;16.80;65.20;;;;;;5084999;28;20054;-69
2022/10/30 06:17:57;;;;;;;2.75;2.25;;;16.80;65.20;;;;;;5084952;28;20026;-70
2022/10/30 06:20:26;;;;;;;2.85;1.92;;;16.90;65.20;;;;;;5084857;28;20036;-69
2022/10/30 06:22:55;;;;;;;2.30;2.10;;;16.90;65.30;;;;;;5084720;28;20103;-69
2022/10/30 06:25:22;;;;;;;2.65;2.30;;;16.90;65.30;;;;;;5084722;28;20024;-69
2022/10/30 06:27:47;;;;;;;2.50;2.22;;;16.90;65.30;;;;;;5084719;28;20032;-69
2022/10/30 06:30:13;;;;;;;3.03;2.33;;;16.80;65.30;;;;;;5084633;28;20016;-70
2022/10/30 06:32:39;;;;;;;2.58;2.25;;;16.90;65.30;;;;;;5084549;28;20212;-70
2022/10/30 06:35:05;;;;;;;5.07;2.80;;;16.80;65.20;;;;;;5084160;28;20016;-69
2022/10/30 06:37:31;;;;;;;2.40;2.20;;;16.80;65.30;;;;;;5084506;28;20017;-69
2022/10/30 06:39:57;;;;;;;2.63;2.42;;;16.80;65.20;;;;;;5084476;28;20020;-70
2022/10/30 06:42:22;;;;;;;2.47;2.20;;;16.90;65.30;;;;;;5084422;28;20028;-70
2022/10/30 06:44:48;;;;;;;2.42;2.17;;;16.90;65.30;;;;;;5084360;28;20027;-69
2022/10/30 06:47:14;;;;;;;1.98;1.73;;;16.80;65.30;;;;;;5084299;28;20070;-70
2022/10/30 06:49:40;;;;;;;2.55;2.35;;;16.90;65.30;;;;;;5084234;28;20350;-69
2022/10/30 06:52:06;;;;;;;2.75;2.38;;;16.90;65.30;;;;;;5084155;28;20029;-70
2022/10/30 06:54:32;;;;;;;2.50;2.30;;;16.90;65.30;;;;;;5084205;28;20016;-70
2022/10/30 06:56:57;;;;;;;2.30;2.10;;;16.90;65.30;;;;;;5084114;28;20044;-70
2022/10/30 06:59:23;;;;;;;3.10;2.20;;;16.90;65.30;;;;;;5084107;28;20013;-69
2022/10/30 07:01:49;;;;;;;2.47;2.20;;;16.90;65.30;;;;;;5084011;28;20028;-69
2022/10/30 07:04:15;;;;;;;2.65;2.05;;;16.90;65.30;;;;;;5083989;28;20028;-70
2022/10/30 07:06:40;;;;;;;2.53;2.03;;;16.90;65.30;;;;;;5083977;28;20021;-70
2022/10/30 07:09:06;;;;;;;2.53;2.30;;;16.80;65.20;;;;;;5083938;28;20028;-69
2022/10/30 07:11:32;;;;;;;2.33;2.00;;;16.90;65.20;;;;;;5083816;28;20065;-69
2022/10/30 07:13:58;;;;;;;2.30;2.10;;;16.90;65.20;;;;;;5083854;28;20171;-69
2022/10/30 07:16:23;;;;;;;2.00;1.80;;;16.90;65.20;;;;;;5083422;28;20070;-69
2022/10/30 07:18:50;;;;;;;2.22;1.85;;;16.80;65.10;;;;;;5083752;28;20339;-70
2022/10/30 07:21:15;;;;;;;3.00;2.30;;;16.90;65.20;;;;;;5083611;28;20334;-69
2022/10/30 07:23:41;;;;;;;3.05;2.22;;;16.90;65.10;;;;;;5083764;28;20062;-69
2022/10/30 07:26:08;;;;;;;2.47;1.90;;;16.90;65.10;;;;;;5083637;28;20332;-69
2022/10/30 07:28:34;;;;;;;2.67;2.22;;;16.90;65.20;;;;;;5083658;28;20058;-69
2022/10/30 07:31:00;;;;;;;3.08;2.30;;;16.90;65.20;;;;;;5083564;28;20031;-69
2022/10/30 07:33:26;;;;;;;3.30;2.83;;;16.90;65.10;;;;;;5083645;28;20324;-69
2022/10/30 07:35:51;;;;;;;2.50;2.17;;;16.90;65.10;;;;;;5083598;28;20312;-69
2022/10/30 07:38:17;;;;;;;2.28;1.90;;;16.90;65.10;;;;;;5083574;28;20016;-69
2022/10/30 07:40:43;;;;;;;3.25;2.60;;;16.90;65.10;;;;;;5083520;28;20020;-69
2022/10/30 07:43:12;;;;;;;1.92;1.73;;;16.90;65.10;;;;;;5083552;28;20025;-69
2022/10/30 07:45:38;;;;;;;;;;;16.90;65.10;;;;;;5083920;28;20048;-69
2022/10/30 07:48:04;;;;;;;2.78;2.30;;;16.90;65.10;;;;;;5082698;28;19901;-69
2022/10/30 07:50:31;;;;;;;2.47;2.17;;;16.90;65.10;;;;;;5083443;28;20020;-70
2022/10/30 07:52:57;;;;;;;2.22;1.77;;;16.90;65.10;;;;;;5083357;28;20027;-70
2022/10/30 07:55:23;;;;;;;2.33;2.10;;;16.90;65.00;;;;;;5083401;28;20013;-69
2022/10/30 07:57:49;;;;;;;2.20;1.98;;;16.90;65.10;;;;;;5083372;28;20329;-70
2022/10/30 08:00:15;;;;;;;2.25;2.05;;;16.90;65.70;;;;;;5083333;28;20016;-70
2022/10/30 08:02:41;;;;;;;2.60;1.95;;;16.90;65.10;;;;;;5082157;28;20048;-70
2022/10/30 08:05:08;;;;;;;2.28;2.08;;;16.90;65.10;;;;;;5083323;28;20020;-69
2022/10/30 08:07:36;;;;;;;2.90;2.28;;;16.90;65.10;;;;;;5083205;28;20307;-69
2022/10/30 08:10:03;;;;;;;2.50;2.30;;;16.90;65.10;;;;;;5083311;28;20300;-70
2022/10/30 08:12:31;;;;;;;3.22;2.15;;;16.90;65.10;;;;;;5083180;28;20048;-69
2022/10/30 08:14:57;;;;;;;2.20;1.88;;;16.90;65.10;;;;;;5082089;28;20013;-70
2022/10/30 08:17:23;;;;;;;2.50;2.30;;;16.90;65.10;;;;;;5083160;28;20028;-70
2022/10/30 08:19:49;;;;;;;2.70;2.33;;;16.90;65.10;;;;;;5083230;28;20012;-70
2022/10/30 08:22:15;;;;;;;2.75;2.28;;;16.90;65.10;;;;;;5082907;28;20346;-69
2022/10/30 08:24:41;;;;;;;2.75;2.25;;;16.90;65.10;;;;;;5083117;28;20036;-70
2022/10/30 08:27:07;;;;;;;2.45;2.03;;;16.90;65.10;;;;;;5081941;28;20027;-70
2022/10/30 08:29:35;;;;;;;3.05;1.88;;;16.90;65.10;;;;;;5083102;28;20227;-69
2022/10/30 08:32:01;;;;;;;2.75;2.28;;;16.90;65.00;;;;;;5082998;28;20062;-70
2022/10/30 08:34:30;;;;;;;2.17;1.90;;;17.00;65.10;;;;;;5083052;28;20399;-69
2022/10/30 08:36:57;;;;;;;3.35;2.33;;;16.90;65.00;;;;;;5083036;28;20066;-69
2022/10/30 08:39:23;;;;;;;2.45;2.08;;;16.90;65.00;;;;;;5083002;28;20016;-69
2022/10/30 08:41:49;;;;;;;2.65;2.30;;;16.90;65.00;;;;;;5082969;28;20016;-70
2022/10/30 08:44:14;;;;;;;2.20;2.00;;;16.90;65.00;;;;;;5082928;28;20020;-69
2022/10/30 08:46:40;;;;;;;2.47;2.00;;;16.90;65.00;;;;;;5082892;28;20047;-69
2022/10/30 08:49:06;;;;;;;2.05;1.73;;;16.90;65.00;;;;;;5081703;28;20348;-70
2022/10/30 08:51:33;;;;;;;2.08;1.83;;;17.00;65.00;;;;;;5082795;28;20028;-69
2022/10/30 08:53:59;;;;;;;2.63;2.13;;;17.00;65.00;;;;;;5082831;28;20009;-69
2022/10/30 08:56:25;;;;;;;2.33;2.00;;;16.90;65.00;;;;;;5082806;28;20017;-69
2022/10/30 08:58:51;;;;;;;2.53;2.33;;;17.00;65.10;;;;;;5084121;28;20475;-70
2022/10/30 09:01:20;;;;;;;2.67;2.30;;;16.90;65.00;;;;;;5086392;28;20024;-70
2022/10/30 09:03:46;;;;;;;3.15;2.35;;;16.90;65.10;;;;;;5086340;28;20021;-70
2022/10/30 09:06:12;;;;;;;2.88;2.28;;;16.90;65.10;;;;;;5086315;28;20028;-69
2022/10/30 09:08:38;;;;;;;2.63;2.33;;;16.90;65.10;;;;;;5086247;28;20313;-70
2022/10/30 09:11:04;;;;;;;2.45;2.25;;;16.90;65.10;;;;;;5086149;28;20081;-69
2022/10/30 09:13:30;;;;;;;2.30;1.95;;;16.90;65.10;;;;;;5086166;28;20020;-69
2022/10/30 09:16:00;;;;;;;2.15;1.80;;;16.90;65.10;;;;;;5086086;28;20212;-69
2022/10/30 09:18:26;;;;;;;2.75;2.30;;;17.00;65.10;;;;;;5086056;28;20081;-70
2022/10/30 09:20:52;;;;;;;2.45;2.05;;;16.90;65.00;;;;;;5086022;28;20017;-70
2022/10/30 09:23:18;;;;;;;2.55;2.00;;;16.90;65.10;;;;;;5085815;28;20064;-70
2022/10/30 09:25:43;;;;;;;2.67;2.47;;;16.90;65.10;;;;;;5085874;28;20038;-69
2022/10/30 09:28:12;;;;;;;2.08;1.88;;;16.90;65.10;;;;;;5085883;28;20085;-70
2022/10/30 09:30:38;;;;;;;;;;;17.00;65.10;;;;;;5086271;28;20021;-70
2022/10/30 09:33:04;;;;;;;2.22;2.03;;;16.90;65.00;;;;;;5085737;28;19950;-70
2022/10/30 09:35:31;;;;;;;2.75;2.30;;;16.90;65.10;;;;;;5084618;28;20050;-69
2022/10/30 09:37:57;;;;;;;2.47;2.28;;;16.90;65.10;;;;;;5085725;28;20316;-69
2022/10/30 09:40:53;;;;;;;2.40;1.90;;;16.90;65.10;;;;;;5085648;28;20020;-69
2022/10/30 09:43:37;;;;;;;2.15;1.95;;;16.90;65.10;;;;;;5085644;28;20019;-69
2022/10/30 09:46:19;;;;;;;2.63;2.40;;;16.90;65.10;;;;;;5085574;28;20020;-69
2022/10/30 09:48:49;;;;;;;2.50;2.30;;;16.90;65.20;;;;;;5085506;28;20012;-69
2022/10/30 09:51:52;;;;;;;2.38;2.17;;;16.90;65.20;;;;;;5085404;28;20035;-69
2022/10/30 09:54:42;;;;;;;2.83;2.38;;;16.90;65.30;;;;;;5085372;28;20017;-70
2022/10/30 09:57:08;;;;;;;3.10;2.47;;;16.90;65.40;;;;;;5085342;28;20242;-69
2022/10/30 09:59:43;;;;;;;2.33;1.85;;;16.90;65.30;;;;;;5085330;28;20012;-69
2022/10/30 10:02:16;;;;;;;2.92;2.53;;;16.90;65.30;;;;;;5084135;28;20016;-70
2022/10/30 10:04:47;;;;;;;2.38;2.17;;;16.90;65.10;;;;;;5085200;28;20018;-70
2022/10/30 10:07:20;;;;;;;2.78;2.00;;;16.90;65.20;;;;;;5085194;28;20307;-69
2022/10/30 10:09:48;;;;;;;3.13;2.60;;;16.90;65.20;;;;;;5084684;28;20016;-69
2022/10/30 10:12:30;;;;;;;2.65;2.00;;;16.90;65.20;;;;;;5084777;28;20025;-69
2022/10/30 10:14:57;;;;;;;2.80;2.10;;;17.00;65.10;;;;;;5085043;28;20020;-69
2022/10/30 10:17:33;;;;;;;1.92;1.73;;;17.00;65.10;;;;;;5084927;28;20253;-70
2022/10/30 10:20:00;;;;;;;1.95;1.77;;;16.90;65.10;;;;;;5084987;28;20047;-70
2022/10/30 10:22:37;;;;;;;2.58;2.33;;;16.90;65.20;;;;;;5084685;28;20127;-69
2022/10/30 10:25:10;;;;;;;2.50;2.30;;;16.90;65.30;;;;;;5084783;28;20020;-69
2022/10/30 10:28:07;;;;;;;2.35;2.15;;;16.90;65.30;;;;;;5084792;28;20031;-70
2022/10/30 10:30:54;;;;;;;2.07;1.87;;;16.90;65.40;;;;;;5084682;28;20086;-69
2022/10/30 10:33:32;;;;;;;2.38;2.17;;;16.80;65.40;;;;;;5084594;28;20265;-69
2022/10/30 10:36:29;;;;;;;2.60;1.85;;;16.90;65.40;;;;;;5084554;28;20013;-69
2022/10/30 10:39:10;;;;;;;2.38;2.03;;;16.90;65.50;;;;;;5073704;28;20066;-69
2022/10/30 10:42:17;;;;;;;2.72;2.30;;;16.90;65.40;;;;;;5083313;28;20027;-70
2022/10/30 10:45:11;;;;;;;2.22;2.03;;;16.90;65.20;;;;;;5039171;28;20310;-69
2022/10/30 10:47:52;;;;;;;2.45;2.25;;;16.90;65.10;;;;;;5084379;28;20204;-69
2022/10/30 10:50:29;;;;;;;2.60;2.10;;;16.90;65.30;;;;;;5084318;28;20023;-69
2022/10/30 10:52:59;;;;;;;2.42;2.08;;;16.90;65.40;;;;;;5084199;28;20023;-69
2022/10/30 10:55:35;;;;;;;2.03;1.80;;;16.90;65.40;;;;;;5084474;28;20020;-69
2022/10/30 10:58:23;;;;;;;2.60;2.40;;;16.90;65.20;;;;;;5084191;28;20079;-70
2022/10/30 11:00:50;;;;;;;2.55;2.00;;;16.90;65.30;;;;;;5084146;28;20208;-70
2022/10/30 11:03:33;;;;;;;3.30;2.38;;;16.90;65.30;;;;;;5084069;28;20020;-71
2022/10/30 11:06:17;;;;;;;2.00;1.80;;;16.90;65.30;;;;;;5084080;28;20243;-71
2022/10/30 11:08:43;;;;;;;3.35;2.80;;;16.90;65.30;;;;;;5084027;28;20013;-70
2022/10/30 11:11:09;;;;;;;2.85;2.22;;;16.90;65.30;;;;;;5083874;28;20016;-69
2022/10/30 11:13:38;;;;;;;2.28;1.80;;;16.90;65.10;;;;;;5083885;28;20356;-69
2022/10/30 11:16:14;;;;;;;2.72;2.20;;;17.00;65.20;;;;;;5083907;28;20013;-69
2022/10/30 11:18:41;;;;;;;1.85;1.70;;;17.00;65.10;;;;;;5082693;28;20024;-71
2022/10/30 11:21:16;;;;;;;2.25;2.05;;;17.00;65.10;;;;;;5083739;28;20012;-70
2022/10/30 11:23:44;;;;;;;2.33;2.03;;;17.00;65.10;;;;;;5083771;28;20336;-69
2022/10/30 11:26:19;;;;;;;3.03;2.40;;;17.00;65.10;;;;;;5083747;28;20020;-69
2022/10/30 11:28:49;;;;;;;2.42;2.13;;;17.00;65.10;;;;;;5083682;28;20308;-70
2022/10/30 11:31:26;;;;;;;2.40;2.15;;;17.00;65.10;;;;;;5083626;28;20028;-69
2022/10/30 11:33:52;;;;;;;2.88;2.22;;;17.00;65.10;;;;;;5083706;28;20067;-69
2022/10/30 11:36:24;;;;;;;2.58;2.28;;;17.00;65.10;;;;;;5083582;28;20016;-69
2022/10/30 11:38:51;;;;;;;1.90;1.70;;;17.00;65.10;;;;;;5083636;28;20178;-69
2022/10/30 11:41:17;;;;;;;2.40;2.10;;;17.00;65.00;;;;;;5083579;28;20020;-69
2022/10/30 11:43:44;;;;;;;1.95;1.75;;;17.00;65.00;;;;;;5083549;28;20058;-69
2022/10/30 11:46:18;;;;;;;2.60;2.17;;;17.00;65.10;;;;;;5083502;28;20055;-69
2022/10/30 11:48:44;;;;;;;3.58;2.20;;;17.00;65.00;;;;;;5083521;28;20021;-69
2022/10/30 11:51:11;;;;;;;1.70;1.60;;;17.00;65.10;;;;;;5083403;28;20016;-69
2022/10/30 11:53:46;;;;;;;2.15;1.95;;;17.00;65.10;;;;;;5083460;28;20040;-69
2022/10/30 11:56:21;;;;;;;2.72;2.10;;;17.00;65.10;;;;;;5083444;28;20023;-70
2022/10/30 11:58:52;;;;;;;2.33;2.10;;;17.00;65.10;;;;;;5083447;28;20036;-69
2022/10/30 12:01:32;;;;;;;2.42;2.17;;;17.00;65.00;;;;;;5083428;28;20016;-71
2022/10/30 12:04:22;;;;;;;2.33;2.13;;;17.00;65.10;;;;;;5083375;28;20031;-70
2022/10/30 12:07:06;;;;;;;2.42;2.10;;;17.00;65.00;;;;;;5083383;28;20012;-69
2022/10/30 12:09:41;;;;;;;2.38;2.17;;;17.00;65.00;;;;;;5083359;28;20017;-69
2022/10/30 12:12:17;;;;;;;2.35;2.10;;;17.00;65.00;;;;;;5083243;28;20020;-69
2022/10/30 12:14:43;;;;;;;2.05;1.85;;;17.00;65.10;;;;;;5083251;28;20013;-69
2022/10/30 12:17:14;;;;;;;2.67;2.33;;;17.00;65.10;;;;;;5083211;28;20335;-69
2022/10/30 12:19:47;;;;;;;2.60;2.00;;;17.00;65.00;;;;;;5083272;28;20016;-69
2022/10/30 12:22:24;;;;;;;2.45;2.25;;;17.00;65.00;;;;;;5083032;28;20052;-70
2022/10/30 12:24:50;;;;;;;2.83;2.38;;;17.00;65.00;;;;;;5083190;28;20020;-69
2022/10/30 12:27:16;;;;;;;2.47;2.05;;;17.00;65.00;;;;;;5083151;28;20208;-70
2022/10/30 12:30:13;;;;;;;2.17;1.90;;;17.00;65.10;;;;;;5083106;28;20042;-69
2022/10/30 12:32:45;;;;;;;2.25;2.03;;;17.00;65.10;;;;;;5083084;28;20020;-69
2022/10/30 12:35:20;;;;;;;3.78;2.22;;;17.00;65.10;;;;;;5086492;28;20016;-69
2022/10/30 12:37:49;;;;;;;2.30;1.98;;;17.00;65.00;;;;;;5086916;28;20043;-69
2022/10/30 12:40:20;;;;;;;;;;;17.00;65.10;;;;;;5087232;28;20024;-69
2022/10/30 12:43:01;;;;;;;1.73;1.63;;;17.00;65.10;;;;;;5086801;28;19924;-69
2022/10/30 12:45:42;;;;;;;2.50;2.05;;;17.00;65.10;;;;;;5086738;28;20044;-69
2022/10/30 12:48:36;;;;;;;2.30;2.10;;;17.00;65.00;;;;;;5086698;28;20043;-70
2022/10/30 12:51:58;;;;;;;2.30;2.03;;;17.00;65.00;;;;;;5085426;28;20028;-69
2022/10/30 12:54:38;;;;;;;2.40;1.90;;;17.00;65.00;;;;;;5024831;28;20314;-69
2022/10/30 12:57:08;;;;;;;1.88;1.70;;;17.00;65.10;;;;;;5024851;28;20336;-69
2022/10/30 12:59:40;;;;;;;2.08;1.83;;;17.00;65.20;;;;;;5069075;28;20297;-69